createdAt,value
2022-10-19T00:01:18.401Z,11.00
2022-10-19T00:06:26.397Z,14.60
2022-10-19T00:08:55.876Z,8.67
2022-10-19T00:11:23.955Z,9.50
2022-10-19T00:13:51.666Z,13.48
2022-10-19T00:16:18.918Z,10.77
2022-10-19T00:18:46.673Z,7.88
2022-10-19T00:21:16.182Z,12.43
2022-10-19T00:23:44.034Z,12.48
2022-10-19T00:26:13.088Z,8.88
2022-10-19T00:28:39.934Z,12.35
2022-10-19T00:31:10.393Z,9.45
2022-10-19T00:33:37.237Z,13.50
2022-10-19T00:36:05.239Z,12.80
2022-10-19T00:38:32.736Z,8.77
2022-10-19T00:41:00.011Z,11.23
2022-10-19T00:43:31.290Z,8.45
2022-10-19T00:45:57.977Z,10.02
2022-10-19T00:48:28.107Z,8.68
2022-10-19T00:50:57.300Z,9.75
2022-10-19T00:53:27.235Z,12.30
2022-10-19T00:55:54.415Z,7.53
2022-10-19T00:58:21.426Z,10.53
2022-10-19T01:00:48.257Z,7.83
2022-10-19T01:03:16.396Z,9.23
2022-10-19T01:05:43.549Z,9.68
2022-10-19T01:08:12.089Z,13.07
2022-10-19T01:10:50.023Z,12.03
2022-10-19T01:13:19.912Z,12.47
2022-10-19T01:16:15.816Z,7.33
2022-10-19T01:19:27.385Z,10.93
2022-10-19T01:22:19.897Z,9.53
2022-10-19T01:25:17.727Z,9.93
2022-10-19T01:27:53.266Z,13.27
2022-10-19T01:30:47.037Z,8.30
2022-10-19T01:33:31.617Z,10.53
2022-10-19T01:36:09.289Z,8.57
2022-10-19T01:39:10.660Z,11.97
2022-10-19T01:41:55.402Z,7.43
2022-10-19T01:44:29.742Z,9.83
2022-10-19T01:47:06.975Z,12.70
2022-10-19T01:49:43.679Z,13.10
2022-10-19T01:52:15.377Z,8.17
2022-10-19T01:54:47.718Z,10.47
2022-10-19T01:57:20.082Z,12.73
2022-10-19T01:59:49.270Z,11.83
2022-10-19T02:02:18.365Z,13.60
2022-10-19T02:04:47.141Z,17.20
2022-10-19T02:07:14.208Z,8.60
2022-10-19T02:09:41.387Z,12.83
2022-10-19T02:12:11.068Z,6.23
2022-10-19T02:14:46.865Z,8.37
2022-10-19T02:17:17.523Z,9.63
2022-10-19T02:19:44.381Z,9.45
2022-10-19T02:22:13.184Z,14.43
2022-10-19T02:24:40.149Z,10.40
2022-10-19T02:27:08.522Z,8.70
2022-10-19T02:29:37.338Z,9.25
2022-10-19T02:32:04.901Z,14.50
2022-10-19T02:34:32.670Z,13.48
2022-10-19T02:36:59.472Z,9.33
2022-10-19T02:39:26.425Z,10.70
2022-10-19T02:41:53.110Z,13.98
2022-10-19T02:44:24.661Z,8.27
2022-10-19T02:46:57.379Z,6.57
2022-10-19T02:49:25.131Z,8.63
2022-10-19T02:52:01.256Z,12.02
2022-10-19T02:54:28.566Z,9.32
2022-10-19T02:56:56.218Z,7.13
2022-10-19T02:59:23.461Z,13.68
2022-10-19T03:01:50.434Z,10.43
2022-10-19T03:04:18.193Z,15.87
2022-10-19T03:06:44.932Z,7.07
2022-10-19T03:09:12.058Z,8.27
2022-10-19T03:11:38.919Z,8.88
2022-10-19T03:14:05.705Z,11.77
2022-10-19T03:16:33.053Z,8.60
2022-10-19T03:19:00.046Z,8.75
2022-10-19T03:21:27.105Z,7.80
2022-10-19T03:23:54.519Z,10.93
2022-10-19T03:26:21.564Z,13.93
2022-10-19T03:28:48.255Z,12.55
2022-10-19T03:31:15.558Z,9.90
2022-10-19T03:33:42.401Z,8.85
2022-10-19T03:36:23.997Z,8.60
2022-10-19T03:38:52.665Z,5.97
2022-10-19T03:41:20.663Z,10.53
2022-10-19T03:43:48.212Z,9.45
2022-10-19T03:46:15.844Z,13.10
2022-10-19T03:48:43.245Z,10.38
2022-10-19T03:51:13.342Z,11.60
2022-10-19T03:53:40.858Z,6.50
2022-10-19T03:56:13.225Z,8.18
2022-10-19T03:58:41.050Z,10.02
2022-10-19T04:01:15.558Z,12.55
2022-10-19T04:03:42.771Z,6.60
2022-10-19T04:06:15.787Z,6.13
2022-10-19T04:08:48.225Z,9.35
2022-10-19T04:11:17.144Z,7.38
2022-10-19T04:13:43.854Z,14.57
2022-10-19T04:16:13.820Z,13.30
2022-10-19T04:18:40.553Z,16.08
2022-10-19T04:21:07.302Z,10.45
2022-10-19T04:23:35.949Z,10.90
2022-10-19T04:26:05.968Z,6.65
2022-10-19T04:28:34.590Z,15.40
2022-10-19T04:31:05.635Z,16.07
2022-10-19T04:33:34.312Z,7.90
2022-10-19T04:36:03.403Z,12.68
2022-10-19T04:38:30.255Z,11.80
2022-10-19T04:41:03.294Z,12.45
2022-10-19T04:43:30.050Z,10.32
2022-10-19T04:45:56.736Z,8.00
2022-10-19T04:48:23.556Z,12.65
2022-10-19T04:50:54.000Z,8.67
2022-10-19T04:53:20.884Z,9.45
2022-10-19T04:55:48.466Z,13.85
2022-10-19T04:58:15.283Z,11.57
2022-10-19T05:00:42.036Z,9.02
2022-10-19T05:03:08.773Z,7.20
2022-10-19T05:05:35.795Z,10.00
2022-10-19T05:08:03.446Z,18.02
2022-10-19T05:10:30.332Z,12.60
2022-10-19T05:12:57.115Z,10.75
2022-10-19T05:15:23.817Z,14.95
2022-10-19T05:17:50.529Z,11.10
2022-10-19T05:20:17.854Z,15.27
2022-10-19T05:22:44.551Z,11.95
2022-10-19T05:25:11.237Z,11.93
2022-10-19T05:27:37.991Z,11.07
2022-10-19T05:30:06.508Z,11.43
2022-10-19T05:32:34.010Z,8.53
2022-10-19T05:35:00.762Z,16.53
2022-10-19T05:37:27.882Z,14.30
2022-10-19T05:39:55.014Z,11.47
2022-10-19T05:42:21.720Z,11.60
2022-10-19T05:44:49.214Z,17.65
2022-10-19T05:47:15.936Z,16.03
2022-10-19T05:49:42.682Z,18.20
2022-10-19T05:52:09.419Z,15.23
2022-10-19T05:54:37.137Z,12.35
2022-10-19T05:57:04.525Z,16.93
2022-10-19T05:59:31.301Z,14.50
2022-10-19T06:01:58.618Z,14.40
2022-10-19T06:04:25.562Z,11.98
2022-10-19T06:06:52.261Z,22.13
2022-10-19T06:09:20.227Z,14.02
2022-10-19T06:11:48.443Z,17.55
2022-10-19T06:14:17.075Z,16.42
2022-10-19T06:16:46.064Z,15.75
2022-10-19T06:19:13.416Z,15.25
2022-10-19T06:21:43.278Z,16.80
2022-10-19T06:24:13.078Z,17.75
2022-10-19T06:26:40.031Z,11.75
2022-10-19T06:29:06.738Z,13.18
2022-10-19T06:31:36.452Z,15.63
2022-10-19T06:34:04.066Z,15.00
2022-10-19T06:36:31.815Z,12.48
2022-10-19T06:39:00.039Z,14.90
2022-10-19T06:41:26.846Z,15.02
2022-10-19T06:43:55.003Z,12.93
2022-10-19T06:46:24.114Z,14.93
2022-10-19T06:48:56.391Z,17.23
2022-10-19T06:51:25.494Z,15.07
2022-10-19T06:53:56.546Z,20.25
2022-10-19T06:56:24.763Z,20.40
2022-10-19T06:58:51.858Z,23.23
2022-10-19T07:01:19.839Z,20.00
2022-10-19T07:03:46.602Z,23.15
2022-10-19T07:06:14.415Z,20.63
2022-10-19T07:08:42.547Z,24.33
2022-10-19T07:11:11.982Z,24.33
2022-10-19T07:13:39.518Z,22.08
2022-10-19T07:16:15.951Z,24.60
2022-10-19T07:18:47.055Z,24.45
2022-10-19T07:21:15.766Z,22.15
2022-10-19T07:23:47.161Z,24.55
2022-10-19T07:26:17.301Z,26.13
2022-10-19T07:28:46.618Z,25.50
2022-10-19T07:31:18.302Z,30.25
2022-10-19T07:33:46.960Z,29.00
2022-10-19T07:36:14.241Z,25.92
2022-10-19T07:38:41.218Z,24.52
2022-10-19T07:41:13.768Z,27.67
2022-10-19T07:43:42.363Z,21.35
2022-10-19T07:46:12.962Z,29.33
2022-10-19T07:48:40.253Z,27.88
2022-10-19T07:51:09.613Z,25.25
2022-10-19T07:53:37.269Z,25.85
2022-10-19T07:56:12.739Z,23.92
2022-10-19T07:58:40.159Z,22.50
2022-10-19T08:01:09.871Z,20.20
2022-10-19T08:06:24.956Z,23.80
2022-10-19T08:08:53.069Z,21.17
2022-10-19T08:11:25.072Z,23.05
2022-10-19T08:13:52.590Z,19.58
2022-10-19T08:16:27.637Z,23.70
2022-10-19T08:18:58.328Z,22.58
2022-10-19T08:21:26.996Z,19.10
2022-10-19T08:23:53.996Z,17.20
2022-10-19T08:26:21.401Z,13.77
2022-10-19T08:28:48.910Z,12.98
2022-10-19T08:31:21.307Z,13.25
2022-10-19T08:33:50.733Z,12.95
2022-10-19T08:36:20.102Z,18.50
2022-10-19T08:38:49.241Z,15.85
2022-10-19T08:41:28.643Z,18.60
2022-10-19T08:44:21.196Z,16.23
2022-10-19T08:46:54.140Z,16.02
2022-10-19T08:49:25.589Z,16.02
2022-10-19T08:51:59.638Z,16.80
2022-10-19T08:54:37.911Z,17.40
2022-10-19T08:57:26.162Z,17.08
2022-10-19T09:00:18.251Z,19.05
2022-10-19T09:02:51.245Z,17.17
2022-10-19T09:05:30.306Z,14.85
2022-10-19T09:07:57.267Z,15.85
2022-10-19T09:10:29.290Z,16.70
2022-10-19T09:13:41.508Z,19.05
2022-10-19T09:16:15.839Z,18.08
2022-10-19T09:18:43.895Z,18.77
2022-10-19T09:21:50.307Z,21.60
2022-10-19T09:24:31.936Z,16.92
2022-10-19T09:27:02.707Z,14.90
2022-10-19T09:29:32.322Z,20.15
2022-10-19T09:32:03.734Z,14.65
2022-10-19T09:34:34.586Z,15.70
2022-10-19T09:37:02.497Z,13.85
2022-10-19T09:39:31.114Z,12.18
2022-10-19T09:41:59.553Z,12.48
2022-10-19T09:44:27.570Z,11.82
2022-10-19T09:47:23.690Z,12.18
2022-10-19T09:49:51.734Z,11.57
2022-10-19T09:52:43.530Z,15.05
2022-10-19T09:55:13.314Z,11.18
2022-10-19T09:57:50.808Z,12.90
2022-10-19T10:00:23.426Z,16.77
2022-10-19T10:02:53.110Z,12.73
2022-10-19T10:05:29.763Z,15.15
2022-10-19T10:07:56.599Z,13.23
2022-10-19T10:10:30.499Z,17.15
2022-10-19T10:13:00.952Z,23.08
2022-10-19T10:15:35.866Z,19.27
2022-10-19T10:18:03.619Z,17.42
2022-10-19T10:20:35.971Z,19.25
2022-10-19T10:23:06.133Z,20.92
2022-10-19T10:25:36.514Z,21.38
2022-10-19T10:28:22.051Z,19.48
2022-10-19T10:30:53.467Z,18.17
2022-10-19T10:33:40.658Z,16.02
2022-10-19T10:36:12.382Z,13.70
2022-10-19T10:38:50.302Z,14.38
2022-10-19T10:41:24.060Z,10.85
2022-10-19T10:44:04.957Z,15.02
2022-10-19T10:46:55.647Z,15.07
2022-10-19T10:49:44.167Z,17.33
2022-10-19T10:52:14.310Z,16.17
2022-10-19T10:54:41.396Z,16.20
2022-10-19T10:57:16.727Z,16.40
2022-10-19T11:00:07.919Z,15.05
2022-10-19T11:02:46.765Z,17.17
2022-10-19T11:05:30.609Z,17.90
2022-10-19T11:08:26.700Z,18.15
2022-10-19T11:11:07.526Z,15.95
2022-10-19T11:13:43.482Z,16.33
2022-10-19T11:16:16.689Z,15.85
2022-10-19T11:18:52.545Z,15.35
2022-10-19T11:21:42.217Z,13.20
2022-10-19T11:24:22.051Z,14.10
2022-10-19T11:27:15.835Z,15.52
2022-10-19T11:29:45.689Z,17.95
2022-10-19T11:32:35.443Z,16.23
2022-10-19T11:35:17.651Z,18.85
2022-10-19T11:38:20.051Z,16.42
2022-10-19T11:41:32.162Z,13.48
2022-10-19T11:44:28.061Z,19.05
2022-10-19T11:47:19.309Z,18.30
2022-10-19T11:50:31.056Z,20.25
2022-10-19T11:53:08.661Z,21.20
2022-10-19T11:56:10.741Z,17.50
2022-10-19T11:58:59.365Z,18.13
2022-10-19T12:01:38.294Z,17.50
2022-10-19T12:04:17.106Z,15.55
2022-10-19T12:07:13.515Z,19.15
2022-10-19T12:09:49.387Z,15.23
2022-10-19T12:12:16.060Z,14.07
2022-10-19T12:14:47.944Z,15.63
2022-10-19T12:17:23.807Z,16.48
2022-10-19T12:19:56.411Z,11.57
2022-10-19T12:22:27.832Z,13.13
2022-10-19T12:24:57.830Z,12.45
2022-10-19T12:27:35.419Z,14.50
2022-10-19T12:30:09.390Z,14.07
2022-10-19T12:32:44.062Z,13.63
2022-10-19T12:35:37.607Z,12.27
2022-10-19T12:38:18.992Z,10.70
2022-10-19T12:40:56.433Z,11.65
2022-10-19T12:43:42.669Z,9.48
2022-10-19T12:46:42.330Z,10.93
2022-10-19T12:49:30.712Z,11.52
2022-10-19T12:51:59.806Z,12.60
2022-10-19T12:54:32.681Z,12.35
2022-10-19T12:57:01.915Z,12.25
2022-10-19T12:59:37.667Z,13.95
2022-10-19T13:02:29.844Z,11.15
2022-10-19T13:04:56.771Z,10.82
2022-10-19T13:07:26.521Z,10.35
2022-10-19T13:10:02.071Z,14.27
2022-10-19T13:12:41.529Z,14.05
2022-10-19T13:15:33.930Z,10.73
2022-10-19T13:18:41.918Z,9.57
2022-10-19T13:21:09.072Z,10.38
2022-10-19T13:23:42.039Z,11.32
2022-10-19T13:26:32.312Z,11.75
2022-10-19T13:28:59.117Z,8.98
2022-10-19T13:31:29.612Z,9.80
2022-10-19T13:33:57.812Z,14.45
2022-10-19T13:36:25.506Z,14.18
2022-10-19T13:39:02.710Z,15.85
2022-10-19T13:41:39.318Z,14.75
2022-10-19T13:44:09.294Z,15.07
2022-10-19T13:46:44.445Z,10.50
2022-10-19T13:49:18.124Z,12.85
2022-10-19T13:52:25.904Z,12.75
2022-10-19T13:54:53.243Z,14.52
2022-10-19T13:57:41.800Z,13.95
2022-10-19T14:00:16.607Z,15.90
2022-10-19T14:03:11.631Z,12.70
2022-10-19T14:05:42.007Z,14.15
2022-10-19T14:08:35.031Z,14.55
2022-10-19T14:11:46.872Z,13.63
2022-10-19T14:14:15.946Z,16.52
2022-10-19T14:16:59.821Z,17.25
2022-10-19T14:19:52.636Z,14.88
2022-10-19T14:22:26.137Z,15.35
2022-10-19T14:25:01.308Z,15.30
2022-10-19T14:27:28.358Z,19.42
2022-10-19T14:29:55.413Z,14.13
2022-10-19T14:32:28.277Z,14.93
2022-10-19T14:35:05.980Z,22.27
2022-10-19T14:37:33.282Z,13.13
2022-10-19T14:40:26.415Z,13.82
2022-10-19T14:42:57.238Z,16.02
2022-10-19T14:45:32.631Z,15.63
2022-10-19T14:48:01.262Z,13.98
2022-10-19T14:50:30.502Z,13.80
2022-10-19T14:53:22.542Z,13.48
2022-10-19T14:55:54.880Z,16.95
2022-10-19T14:58:25.026Z,18.08
2022-10-19T15:00:54.019Z,14.38
2022-10-19T15:03:27.206Z,14.55
2022-10-19T15:06:03.174Z,18.00
2022-10-19T15:08:37.416Z,15.48
2022-10-19T15:11:06.856Z,14.73
2022-10-19T15:13:40.875Z,17.65
2022-10-19T15:16:29.461Z,19.35
2022-10-19T15:18:56.252Z,17.75
2022-10-19T15:21:23.354Z,16.15
2022-10-19T15:23:52.459Z,17.65
2022-10-19T15:26:29.846Z,18.63
2022-10-19T15:29:10.210Z,17.25
2022-10-19T15:31:36.938Z,18.77
2022-10-19T15:34:05.419Z,19.15
2022-10-19T15:36:33.097Z,23.95
2022-10-19T15:39:18.175Z,16.63
2022-10-19T15:41:52.058Z,19.42
2022-10-19T15:44:42.181Z,20.73
2022-10-19T15:47:15.426Z,17.65
2022-10-19T15:49:42.052Z,16.02
2022-10-19T15:52:29.969Z,19.52
2022-10-19T15:54:58.853Z,19.80
2022-10-19T15:57:30.777Z,19.55
2022-10-19T15:59:59.902Z,17.48
2022-10-19T16:02:27.123Z,18.40
2022-10-19T16:04:55.717Z,22.60
2022-10-19T16:07:29.306Z,25.33
2022-10-19T16:09:57.385Z,20.83
2022-10-19T16:12:29.143Z,22.02
2022-10-19T16:14:59.370Z,19.00
2022-10-19T16:17:28.075Z,21.70
2022-10-19T16:19:57.018Z,23.92
2022-10-19T16:22:26.300Z,24.70
2022-10-19T16:24:54.927Z,28.40
2022-10-19T16:27:21.789Z,24.85
2022-10-19T16:29:48.522Z,18.58
2022-10-19T16:32:15.501Z,21.35
2022-10-19T16:34:42.277Z,19.17
2022-10-19T16:37:09.128Z,18.75
2022-10-19T16:39:36.410Z,22.85
2022-10-19T16:42:03.332Z,19.90
2022-10-19T16:44:30.222Z,18.10
2022-10-19T16:46:58.230Z,17.40
2022-10-19T16:49:26.276Z,21.05
2022-10-19T16:51:56.337Z,17.80
2022-10-19T16:54:26.930Z,13.85
2022-10-19T16:56:56.161Z,13.15
2022-10-19T16:59:22.919Z,17.70
2022-10-19T17:01:49.902Z,11.70
2022-10-19T17:04:20.231Z,12.05
2022-10-19T17:06:47.031Z,11.18
2022-10-19T17:09:40.261Z,11.85
2022-10-19T17:12:00.846Z,10.88
2022-10-19T17:14:27.715Z,15.50
2022-10-19T17:16:55.191Z,13.80
2022-10-19T17:19:22.946Z,11.70
2022-10-19T17:21:49.930Z,14.80
2022-10-19T17:24:21.968Z,15.95
2022-10-19T17:26:51.045Z,10.57
2022-10-19T17:29:18.263Z,11.50
2022-10-19T17:31:45.375Z,14.68
2022-10-19T17:34:12.411Z,16.42
2022-10-19T17:36:44.901Z,13.85
2022-10-19T17:39:17.908Z,10.73
2022-10-19T17:41:46.284Z,11.55
2022-10-19T17:44:13.812Z,10.15
2022-10-19T17:46:41.972Z,11.60
2022-10-19T17:49:10.729Z,10.82
2022-10-19T17:51:38.869Z,9.38
2022-10-19T17:54:10.349Z,11.40
2022-10-19T17:56:38.967Z,13.50
2022-10-19T17:59:07.966Z,14.20
2022-10-19T18:01:35.163Z,11.93
2022-10-19T18:04:01.898Z,12.15
2022-10-19T18:06:34.050Z,16.58
2022-10-19T18:09:02.730Z,11.93
2022-10-19T18:11:36.032Z,11.50
2022-10-19T18:14:03.691Z,11.77
2022-10-19T18:16:38.763Z,11.35
2022-10-19T18:19:06.722Z,14.40
2022-10-19T18:21:38.638Z,11.73
2022-10-19T18:24:07.460Z,14.43
2022-10-19T18:26:35.899Z,13.60
2022-10-19T18:29:15.381Z,13.80
2022-10-19T18:31:42.655Z,14.35
2022-10-19T18:34:14.189Z,14.23
2022-10-19T18:36:42.343Z,11.50
2022-10-19T18:39:12.383Z,15.07
2022-10-19T18:41:41.330Z,12.43
2022-10-19T18:44:12.285Z,15.63
2022-10-19T18:46:39.244Z,24.35
2022-10-19T18:49:08.224Z,13.57
2022-10-19T18:51:35.628Z,12.32
2022-10-19T18:54:02.471Z,22.35
2022-10-19T18:56:29.582Z,16.08
2022-10-19T18:58:57.644Z,11.73
2022-10-19T19:01:26.905Z,20.55
2022-10-19T19:04:00.554Z,14.07
2022-10-19T19:06:29.469Z,12.20
2022-10-19T19:09:01.341Z,13.82
2022-10-19T19:11:35.954Z,12.20
2022-10-19T19:14:18.081Z,13.30
2022-10-19T19:16:45.804Z,13.93
2022-10-19T19:19:15.535Z,16.20
2022-10-19T19:21:44.659Z,13.07
2022-10-19T19:24:14.904Z,15.90
2022-10-19T19:26:45.100Z,15.02
2022-10-19T19:29:12.840Z,20.00
2022-10-19T19:31:39.711Z,18.20
2022-10-19T19:34:07.791Z,16.30
2022-10-19T19:36:34.635Z,16.40
2022-10-19T19:39:01.826Z,18.43
2022-10-19T19:41:30.777Z,17.30
2022-10-19T19:43:59.009Z,16.83
2022-10-19T19:46:27.128Z,16.98
2022-10-19T19:49:01.010Z,15.37
2022-10-19T19:51:29.213Z,18.90
2022-10-19T19:53:56.183Z,21.87
2022-10-19T19:56:23.226Z,20.67
2022-10-19T19:58:54.975Z,24.83
2022-10-19T20:01:22.301Z,20.33
2022-10-19T20:03:49.196Z,22.40
2022-10-19T20:06:20.777Z,19.80
2022-10-19T20:08:50.506Z,21.43
2022-10-19T20:11:17.675Z,21.30
2022-10-19T20:13:45.998Z,21.83
2022-10-19T20:16:18.575Z,24.30
2022-10-19T20:18:48.132Z,20.07
2022-10-19T20:21:15.930Z,21.13
2022-10-19T20:26:24.536Z,21.33
2022-10-19T20:28:51.963Z,19.80
2022-10-19T20:31:19.584Z,20.33
2022-10-19T20:33:49.730Z,19.23
2022-10-19T20:36:23.046Z,22.47
2022-10-19T20:38:55.284Z,20.80
2022-10-19T20:41:24.036Z,19.90
2022-10-19T20:43:51.720Z,20.00
2022-10-19T20:46:22.270Z,17.67
2022-10-19T20:48:50.135Z,20.40
2022-10-19T20:51:26.027Z,19.07
2022-10-19T20:53:57.657Z,20.37
2022-10-19T20:56:31.243Z,19.23
2022-10-19T20:59:00.621Z,19.23
2022-10-19T21:01:29.214Z,18.63
2022-10-19T21:03:58.953Z,27.73
2022-10-19T21:06:28.675Z,21.77
2022-10-19T21:08:56.456Z,21.93
2022-10-19T21:11:33.264Z,21.83
2022-10-19T21:14:02.417Z,23.50
2022-10-19T21:16:37.832Z,19.87
2022-10-19T21:19:08.091Z,19.53
2022-10-19T21:21:37.517Z,22.10
2022-10-19T21:24:06.388Z,20.73
2022-10-19T21:26:35.168Z,20.67
2022-10-19T21:29:03.790Z,21.53
2022-10-19T21:31:30.867Z,18.20
2022-10-19T21:33:58.619Z,18.70
2022-10-19T21:36:25.283Z,24.97
2022-10-19T21:38:52.061Z,25.53
2022-10-19T21:41:25.356Z,26.30
2022-10-19T21:43:54.766Z,24.27
2022-10-19T21:46:22.934Z,23.40
2022-10-19T21:48:50.398Z,24.90
2022-10-19T21:51:17.075Z,22.40
2022-10-19T21:53:44.590Z,24.63
2022-10-19T21:56:11.500Z,25.27
2022-10-19T21:58:38.241Z,27.37
2022-10-19T22:01:05.955Z,21.17
2022-10-19T22:03:32.855Z,23.50
2022-10-19T22:06:00.170Z,26.87
2022-10-19T22:08:28.534Z,20.80
2022-10-19T22:10:55.565Z,23.37
2022-10-19T22:13:22.336Z,29.67
2022-10-19T22:15:49.126Z,26.67
2022-10-19T22:18:15.965Z,29.17
2022-10-19T22:20:43.447Z,30.73
2022-10-19T22:23:10.143Z,33.00
2022-10-19T22:25:36.909Z,31.00
2022-10-19T22:28:03.735Z,31.20
2022-10-19T22:30:30.538Z,32.93
2022-10-19T22:32:57.744Z,29.17
2022-10-19T22:35:25.190Z,34.07
2022-10-19T22:37:51.950Z,35.50
2022-10-19T22:40:18.761Z,33.77
2022-10-19T22:42:45.451Z,33.70
2022-10-19T22:45:12.432Z,34.73
2022-10-19T22:47:39.351Z,31.47
2022-10-19T22:50:07.428Z,30.57
2022-10-19T22:52:34.337Z,29.70
2022-10-19T22:55:01.329Z,27.97
2022-10-19T22:57:28.824Z,33.23
2022-10-19T22:59:55.637Z,30.13
2022-10-19T23:02:22.342Z,36.10
2022-10-19T23:04:49.078Z,32.63
2022-10-19T23:07:15.807Z,34.77
2022-10-19T23:09:43.070Z,33.37
2022-10-19T23:12:10.482Z,38.57
2022-10-19T23:14:37.204Z,35.93
2022-10-19T23:17:03.906Z,36.87
2022-10-19T23:19:30.591Z,39.43
2022-10-19T23:21:57.247Z,41.43
2022-10-19T23:24:24.250Z,41.60
2022-10-19T23:26:51.009Z,37.77
2022-10-19T23:29:17.875Z,43.43
2022-10-19T23:31:45.505Z,45.87
2022-10-19T23:34:12.162Z,45.00
2022-10-19T23:36:38.914Z,46.10
2022-10-19T23:39:05.720Z,46.27
2022-10-19T23:41:33.051Z,48.50
2022-10-19T23:44:00.423Z,52.47
2022-10-19T23:46:27.203Z,53.83
2022-10-19T23:48:53.892Z,53.30
2022-10-19T23:51:21.955Z,55.23
2022-10-19T23:53:50.401Z,55.03
2022-10-19T23:56:23.050Z,57.43
2022-10-19T23:58:50.609Z,56.67
